createdAt,value
2022-11-05T00:00:03.397Z,28.70
2022-11-05T00:00:15.119Z,29.10
2022-11-05T00:00:26.848Z,28.60
2022-11-05T00:00:37.926Z,28.70
2022-11-05T00:00:50.120Z,28.70
2022-11-05T00:01:00.920Z,28.30
2022-11-05T00:01:13.156Z,28.30
2022-11-05T00:01:23.999Z,28.30
2022-11-05T00:01:35.803Z,28.40
2022-11-05T00:01:47.617Z,28.10
2022-11-05T00:02:00.296Z,28.00
2022-11-05T00:02:12.540Z,28.00
2022-11-05T00:02:23.358Z,27.80
2022-11-05T00:02:37.513Z,27.10
2022-11-05T00:02:49.968Z,27.10
2022-11-05T00:03:02.023Z,27.50
2022-11-05T00:03:14.598Z,27.30
2022-11-05T00:03:27.877Z,27.80
2022-11-05T00:03:40.144Z,27.90
2022-11-05T00:03:51.896Z,28.10
2022-11-05T00:04:02.734Z,27.80
2022-11-05T00:04:15.550Z,27.50
2022-11-05T00:04:30.937Z,27.80
2022-11-05T00:04:43.686Z,27.90
2022-11-05T00:04:55.429Z,28.50
2022-11-05T00:05:08.638Z,28.10
2022-11-05T00:05:20.381Z,27.40
2022-11-05T00:05:32.150Z,27.10
2022-11-05T00:05:42.895Z,27.10
2022-11-05T00:05:53.659Z,27.20
2022-11-05T00:06:04.460Z,27.00
2022-11-05T00:06:15.262Z,27.00
2022-11-05T00:06:27.061Z,26.50
2022-11-05T00:06:40.081Z,26.90
2022-11-05T00:06:51.919Z,26.90
2022-11-05T00:07:04.850Z,26.70
2022-11-05T00:07:18.100Z,27.20
2022-11-05T00:07:29.865Z,26.90
2022-11-05T00:07:40.629Z,27.00
2022-11-05T00:07:52.378Z,27.00
2022-11-05T00:08:04.851Z,27.30
2022-11-05T00:08:17.320Z,26.90
2022-11-05T00:08:28.039Z,26.90
2022-11-05T00:08:38.862Z,26.70
2022-11-05T00:08:50.611Z,27.00
2022-11-05T00:09:01.382Z,27.30
2022-11-05T00:09:13.810Z,26.90
2022-11-05T00:09:24.597Z,25.80
2022-11-05T00:09:35.388Z,25.60
2022-11-05T00:09:47.092Z,25.80
2022-11-05T00:09:58.830Z,25.70
2022-11-05T00:10:09.649Z,25.80
2022-11-05T00:10:22.100Z,26.10
2022-11-05T00:10:32.879Z,26.60
2022-11-05T00:10:43.631Z,26.40
2022-11-05T00:10:54.401Z,26.30
2022-11-05T00:11:05.152Z,25.70
2022-11-05T00:11:18.620Z,26.10
2022-11-05T00:11:29.410Z,26.10
2022-11-05T00:11:40.228Z,25.70
2022-11-05T00:11:51.912Z,24.70
2022-11-05T00:12:04.909Z,24.80
2022-11-05T00:12:17.620Z,25.50
2022-11-05T00:12:29.386Z,26.40
2022-11-05T00:13:20.308Z,0.00
2022-11-05T00:13:32.497Z,25.40
2022-11-05T00:13:44.229Z,25.80
2022-11-05T00:13:54.978Z,27.10
2022-11-05T00:14:08.197Z,27.80
2022-11-05T00:14:19.928Z,29.20
2022-11-05T00:14:31.877Z,31.00
2022-11-05T00:14:43.640Z,32.60
2022-11-05T00:14:54.385Z,33.30
2022-11-05T00:15:05.156Z,31.60
2022-11-05T00:15:15.911Z,31.60
2022-11-05T00:15:28.367Z,31.60
2022-11-05T00:15:39.207Z,32.30
2022-11-05T00:15:50.978Z,32.10
2022-11-05T00:16:03.220Z,31.20
2022-11-05T00:16:15.498Z,31.20
2022-11-05T00:16:27.948Z,31.80
2022-11-05T00:16:38.737Z,32.50
2022-11-05T00:16:51.194Z,32.40
2022-11-05T00:17:02.957Z,31.80
2022-11-05T00:17:15.439Z,31.20
2022-11-05T00:17:26.289Z,30.60
2022-11-05T00:17:39.517Z,30.40
2022-11-05T00:17:51.987Z,30.80
2022-11-05T00:18:05.720Z,30.50
2022-11-05T00:18:17.479Z,30.60
2022-11-05T00:18:28.207Z,30.20
2022-11-05T00:18:39.917Z,30.60
2022-11-05T00:18:50.708Z,30.50
2022-11-05T00:19:03.161Z,30.60
2022-11-05T00:19:15.877Z,30.50
2022-11-05T00:19:27.883Z,31.30
2022-11-05T00:19:39.618Z,31.50
2022-11-05T00:19:52.080Z,31.40
2022-11-05T00:20:02.879Z,30.00
2022-11-05T00:20:13.730Z,29.10
2022-11-05T00:20:24.479Z,28.10
2022-11-05T00:20:35.271Z,27.00
2022-11-05T00:20:46.057Z,26.00
2022-11-05T00:20:58.673Z,24.80
2022-11-05T00:21:11.630Z,24.70
2022-11-05T00:21:22.419Z,24.60
2022-11-05T00:21:33.168Z,24.30
2022-11-05T00:21:45.388Z,24.30
2022-11-05T00:21:56.212Z,24.80
2022-11-05T00:22:06.949Z,24.80
2022-11-05T00:22:19.438Z,24.70
2022-11-05T00:22:32.369Z,24.10
2022-11-05T00:22:44.854Z,24.40
2022-11-05T00:22:57.399Z,24.10
2022-11-05T00:23:10.248Z,23.80
2022-11-05T00:23:22.153Z,25.20
2022-11-05T00:23:33.878Z,25.70
2022-11-05T00:23:44.630Z,25.50
2022-11-05T00:23:55.424Z,25.00
2022-11-05T00:24:07.632Z,25.70
2022-11-05T00:24:24.065Z,25.90
2022-11-05T00:24:35.037Z,25.40
2022-11-05T00:24:46.732Z,24.70
2022-11-05T00:24:59.939Z,25.30
2022-11-05T00:25:10.734Z,25.60
2022-11-05T00:25:22.469Z,25.60
2022-11-05T00:25:33.249Z,25.10
2022-11-05T00:25:46.949Z,24.90
2022-11-05T00:26:00.112Z,25.90
2022-11-05T00:26:13.083Z,25.60
2022-11-05T00:26:24.810Z,24.90
2022-11-05T00:26:37.259Z,24.70
2022-11-05T00:26:49.018Z,25.30
2022-11-05T00:27:01.269Z,25.10
2022-11-05T00:27:13.742Z,24.90
2022-11-05T00:27:24.763Z,24.90
2022-11-05T00:27:37.171Z,25.00
2022-11-05T00:27:50.888Z,25.40
2022-11-05T00:28:04.620Z,25.20
2022-11-05T00:28:15.391Z,25.10
2022-11-05T00:28:27.828Z,25.20
2022-11-05T00:28:40.090Z,24.60
2022-11-05T00:28:51.853Z,25.40
2022-11-05T00:29:04.339Z,25.70
2022-11-05T00:29:16.851Z,25.80
2022-11-05T00:29:28.631Z,25.60
2022-11-05T00:29:41.100Z,25.90
2022-11-05T00:29:51.848Z,25.40
2022-11-05T00:30:03.571Z,26.20
2022-11-05T00:30:14.339Z,26.40
2022-11-05T00:30:25.101Z,25.90
2022-11-05T00:30:37.563Z,25.70
2022-11-05T00:30:49.795Z,25.80
2022-11-05T00:31:02.250Z,25.30
2022-11-05T00:31:14.510Z,25.00
2022-11-05T00:31:27.479Z,24.90
2022-11-05T00:31:38.253Z,26.20
2022-11-05T00:31:49.013Z,26.40
2022-11-05T00:31:59.769Z,26.00
2022-11-05T00:32:10.551Z,25.80
2022-11-05T00:32:21.302Z,26.10
2022-11-05T00:32:32.044Z,26.70
2022-11-05T00:32:42.771Z,26.90
2022-11-05T00:32:53.528Z,26.40
2022-11-05T00:33:04.310Z,26.00
2022-11-05T00:33:15.140Z,25.90
2022-11-05T00:33:28.370Z,26.10
2022-11-05T00:33:40.826Z,26.20
2022-11-05T00:33:53.029Z,25.90
2022-11-05T00:34:06.001Z,26.20
2022-11-05T00:34:16.781Z,26.50
2022-11-05T00:34:30.026Z,26.30
2022-11-05T00:34:42.776Z,25.90
2022-11-05T00:34:53.568Z,26.80
2022-11-05T00:35:05.281Z,26.90
2022-11-05T00:35:17.082Z,26.90
2022-11-05T00:35:27.842Z,26.20
2022-11-05T00:35:39.599Z,26.50
2022-11-05T00:35:50.390Z,26.20
2022-11-05T00:36:02.153Z,25.50
2022-11-05T00:36:14.610Z,25.80
2022-11-05T00:36:26.312Z,25.10
2022-11-05T00:36:39.319Z,24.60
2022-11-05T00:36:51.731Z,24.40
2022-11-05T00:37:05.210Z,24.60
2022-11-05T00:37:16.910Z,24.70
2022-11-05T00:37:28.798Z,24.30
2022-11-05T00:37:45.648Z,24.40
2022-11-05T00:37:58.413Z,24.40
2022-11-05T00:38:09.202Z,24.70
2022-11-05T00:38:20.012Z,25.10
2022-11-05T00:38:32.281Z,25.30
2022-11-05T00:38:43.061Z,24.90
2022-11-05T00:38:53.821Z,24.70
2022-11-05T00:39:05.565Z,25.00
2022-11-05T00:39:17.302Z,24.80
2022-11-05T00:39:29.071Z,24.40
2022-11-05T00:39:42.290Z,23.50
2022-11-05T00:39:55.501Z,24.20
2022-11-05T00:40:07.921Z,23.80
2022-11-05T00:40:18.722Z,23.90
2022-11-05T00:40:31.151Z,23.60
2022-11-05T00:40:41.955Z,23.40
2022-11-05T00:40:52.735Z,23.40
2022-11-05T00:41:05.932Z,23.30
2022-11-05T00:41:16.681Z,24.10
2022-11-05T00:41:28.452Z,23.90
2022-11-05T00:41:40.431Z,23.30
2022-11-05T00:41:52.673Z,22.70
2022-11-05T00:42:03.632Z,22.70
2022-11-05T00:42:17.342Z,22.50
2022-11-05T00:42:29.035Z,22.40
2022-11-05T00:42:41.523Z,21.70
2022-11-05T00:42:53.302Z,22.00
2022-11-05T00:43:04.045Z,22.50
2022-11-05T00:43:14.792Z,23.30
2022-11-05T00:43:25.562Z,23.40
2022-11-05T00:43:38.004Z,23.40
2022-11-05T00:43:48.772Z,23.70
2022-11-05T00:44:00.773Z,24.40
2022-11-05T00:44:13.238Z,23.10
2022-11-05T00:44:24.033Z,22.50
2022-11-05T00:44:37.249Z,22.70
2022-11-05T00:44:47.982Z,23.80
2022-11-05T00:44:59.683Z,24.30
2022-11-05T00:45:11.402Z,24.70
2022-11-05T00:45:22.255Z,24.00
2022-11-05T00:45:33.023Z,24.10
2022-11-05T00:45:43.783Z,23.70
2022-11-05T00:45:54.553Z,23.70
2022-11-05T00:46:08.295Z,23.20
2022-11-05T00:46:19.055Z,23.20
2022-11-05T00:46:29.791Z,23.70
2022-11-05T00:46:42.222Z,23.20
2022-11-05T00:46:59.623Z,23.40
2022-11-05T00:47:12.584Z,23.00
2022-11-05T00:47:25.044Z,23.70
2022-11-05T00:47:35.812Z,24.00
2022-11-05T00:47:48.245Z,23.70
2022-11-05T00:47:59.993Z,23.70
2022-11-05T00:48:12.465Z,23.70
2022-11-05T00:48:23.198Z,24.40
2022-11-05T00:48:34.974Z,24.40
2022-11-05T00:48:46.744Z,24.50
2022-11-05T00:49:00.453Z,24.30
2022-11-05T00:49:12.184Z,23.90
2022-11-05T00:49:24.654Z,24.00
2022-11-05T00:49:36.900Z,23.20
2022-11-05T00:49:47.674Z,22.50
2022-11-05T00:49:59.905Z,22.10
2022-11-05T00:50:11.913Z,22.60
2022-11-05T00:50:23.613Z,23.20
2022-11-05T00:50:34.423Z,22.70
2022-11-05T00:50:46.234Z,23.80
2022-11-05T00:50:57.023Z,24.10
2022-11-05T00:51:07.772Z,24.20
2022-11-05T00:51:18.568Z,23.60
2022-11-05T00:51:30.833Z,22.70
2022-11-05T00:51:41.602Z,22.90
2022-11-05T00:51:53.384Z,22.90
2022-11-05T00:52:05.083Z,23.40
2022-11-05T00:52:16.836Z,24.30
2022-11-05T00:52:27.635Z,25.00
2022-11-05T00:52:39.885Z,25.20
2022-11-05T00:52:50.672Z,25.30
2022-11-05T00:53:01.424Z,25.90
2022-11-05T00:53:13.531Z,26.50
2022-11-05T00:53:24.426Z,26.40
2022-11-05T00:53:36.147Z,26.10
2022-11-05T00:53:46.888Z,25.20
2022-11-05T00:53:59.314Z,24.90
2022-11-05T00:54:11.054Z,25.10
2022-11-05T00:54:22.816Z,25.30
2022-11-05T00:54:35.030Z,25.10
2022-11-05T00:54:47.755Z,25.30
2022-11-05T00:54:59.494Z,25.40
2022-11-05T00:55:10.244Z,25.40
2022-11-05T00:55:21.014Z,25.70
2022-11-05T00:55:33.517Z,25.40
2022-11-05T00:55:44.243Z,25.70
2022-11-05T00:55:56.726Z,25.70
2022-11-05T00:56:08.946Z,25.60
2022-11-05T00:56:19.943Z,25.40
2022-11-05T00:56:30.742Z,25.60
2022-11-05T00:56:43.189Z,25.30
2022-11-05T00:56:59.419Z,25.30
2022-11-05T00:57:12.725Z,25.40
2022-11-05T00:57:23.458Z,25.70
2022-11-05T00:57:34.235Z,25.30
2022-11-05T00:57:46.935Z,25.60
2022-11-05T00:57:58.815Z,25.30
2022-11-05T00:58:10.532Z,24.60
2022-11-05T00:58:22.775Z,24.60
2022-11-05T00:58:35.474Z,24.90
2022-11-05T00:58:47.239Z,25.30
2022-11-05T00:58:59.015Z,25.50
2022-11-05T00:59:10.995Z,25.20
2022-11-05T00:59:21.725Z,24.80
2022-11-05T00:59:33.458Z,25.10
2022-11-05T00:59:45.155Z,25.20
2022-11-05T00:59:57.586Z,25.60
2022-11-05T01:00:09.347Z,25.50
2022-11-05T01:00:21.836Z,26.30
2022-11-05T01:00:35.059Z,26.40
2022-11-05T01:00:46.614Z,26.70
2022-11-05T01:00:58.409Z,26.70
2022-11-05T01:01:10.333Z,26.30
2022-11-05T01:01:22.395Z,26.00
2022-11-05T01:01:34.468Z,26.00
2022-11-05T01:01:47.110Z,26.20
2022-11-05T01:01:59.070Z,26.70
2022-11-05T01:02:10.911Z,26.70
2022-11-05T01:02:22.107Z,26.70
2022-11-05T01:02:34.832Z,27.00
2022-11-05T01:02:48.250Z,27.20
2022-11-05T01:03:00.977Z,27.20
2022-11-05T01:03:13.012Z,26.30
2022-11-05T01:03:25.807Z,25.70
2022-11-05T01:03:38.288Z,25.50
2022-11-05T01:03:51.850Z,25.10
2022-11-05T01:04:03.837Z,25.10
2022-11-05T01:04:14.686Z,24.50
2022-11-05T01:04:27.165Z,24.70
2022-11-05T01:04:38.903Z,24.50
2022-11-05T01:04:51.217Z,24.70
2022-11-05T01:05:02.016Z,24.40
2022-11-05T01:05:12.796Z,24.90
2022-11-05T01:05:23.632Z,25.30
2022-11-05T01:05:35.416Z,25.60
2022-11-05T01:05:46.157Z,25.20
2022-11-05T01:05:57.865Z,25.10
2022-11-05T01:06:10.356Z,25.30
2022-11-05T01:06:21.115Z,25.80
2022-11-05T01:06:31.879Z,25.70
2022-11-05T01:06:42.637Z,26.30
2022-11-05T01:06:54.387Z,26.60
2022-11-05T01:07:06.896Z,26.80
2022-11-05T01:07:17.817Z,25.90
2022-11-05T01:07:28.617Z,26.10
2022-11-05T01:07:40.343Z,26.50
2022-11-05T01:07:51.068Z,26.40
2022-11-05T01:08:01.857Z,26.10
2022-11-05T01:08:12.857Z,25.50
2022-11-05T01:08:23.595Z,25.80
2022-11-05T01:08:35.333Z,25.40
2022-11-05T01:08:46.167Z,25.80
2022-11-05T01:08:56.945Z,25.60
2022-11-05T01:09:07.717Z,25.90
2022-11-05T01:09:18.607Z,25.20
2022-11-05T01:09:29.424Z,25.60
2022-11-05T01:09:41.841Z,25.60
2022-11-05T01:09:52.579Z,26.50
2022-11-05T01:10:03.368Z,26.30
2022-11-05T01:10:14.348Z,25.80
2022-11-05T01:10:27.066Z,25.20
2022-11-05T01:10:37.872Z,25.40
2022-11-05T01:10:48.648Z,25.60
2022-11-05T01:11:01.417Z,25.90
2022-11-05T01:11:12.240Z,25.70
2022-11-05T01:11:24.059Z,25.50
2022-11-05T01:11:34.937Z,25.30
2022-11-05T01:11:46.746Z,26.00
2022-11-05T01:11:57.528Z,26.10
2022-11-05T01:12:08.334Z,25.70
2022-11-05T01:12:19.097Z,26.10
2022-11-05T01:12:31.575Z,26.30
2022-11-05T01:12:42.317Z,25.60
2022-11-05T01:12:54.048Z,25.40
2022-11-05T01:13:10.183Z,25.10
2022-11-05T01:13:21.498Z,25.50
2022-11-05T01:13:32.333Z,25.80
2022-11-05T01:13:43.118Z,25.10
2022-11-05T01:13:55.635Z,25.10
2022-11-05T01:14:06.447Z,25.40
2022-11-05T01:14:18.931Z,25.90
2022-11-05T01:14:31.381Z,25.70
2022-11-05T01:14:42.116Z,26.20
2022-11-05T01:14:52.877Z,26.00
2022-11-05T01:15:03.648Z,25.80
2022-11-05T01:15:14.436Z,26.20
2022-11-05T01:15:25.220Z,26.90
2022-11-05T01:15:36.007Z,26.60
2022-11-05T01:15:46.779Z,25.60
2022-11-05T01:15:58.488Z,25.40
2022-11-05T01:16:09.306Z,25.70
2022-11-05T01:16:20.117Z,25.90
2022-11-05T01:16:31.028Z,26.10
2022-11-05T01:16:41.768Z,25.60
2022-11-05T01:16:54.228Z,24.90
2022-11-05T01:17:05.956Z,25.30
2022-11-05T01:17:18.454Z,24.90
2022-11-05T01:17:29.258Z,25.00
2022-11-05T01:17:40.977Z,24.90
2022-11-05T01:17:51.737Z,25.80
2022-11-05T01:18:02.500Z,25.90
2022-11-05T01:18:14.199Z,26.70
2022-11-05T01:18:24.998Z,26.70
2022-11-05T01:18:35.779Z,25.60
2022-11-05T01:18:46.552Z,25.20
2022-11-05T01:18:58.276Z,25.20
2022-11-05T01:19:10.030Z,25.80
2022-11-05T01:19:21.851Z,25.60
2022-11-05T01:19:32.619Z,25.70
2022-11-05T01:19:43.419Z,25.40
2022-11-05T01:19:54.178Z,26.40
2022-11-05T01:20:04.927Z,26.50
2022-11-05T01:20:15.722Z,26.50
2022-11-05T01:20:26.491Z,25.40
2022-11-05T01:20:37.249Z,26.30
2022-11-05T01:20:48.029Z,26.40
2022-11-05T01:20:58.839Z,27.00
2022-11-05T01:21:11.591Z,26.20
2022-11-05T01:21:24.080Z,26.40
2022-11-05T01:21:37.309Z,26.10
2022-11-05T01:21:51.559Z,26.30
2022-11-05T01:22:03.422Z,27.10
2022-11-05T01:22:15.658Z,26.50
2022-11-05T01:22:28.389Z,25.80
2022-11-05T01:22:39.149Z,25.00
2022-11-05T01:22:50.000Z,23.90
2022-11-05T01:23:04.640Z,24.70
2022-11-05T01:23:19.400Z,25.00
2022-11-05T01:23:31.823Z,24.70
2022-11-05T01:23:44.301Z,25.30
2022-11-05T01:23:57.333Z,24.80
2022-11-05T01:24:09.871Z,25.40
2022-11-05T01:24:22.619Z,25.60
2022-11-05T01:24:35.341Z,25.60
2022-11-05T01:24:46.119Z,25.80
2022-11-05T01:24:58.583Z,25.00
2022-11-05T01:25:10.330Z,24.40
2022-11-05T01:25:21.069Z,24.50
2022-11-05T01:25:34.342Z,24.60
2022-11-05T01:25:46.080Z,24.60
2022-11-05T01:25:58.347Z,24.80
2022-11-05T01:26:10.837Z,25.10
2022-11-05T01:26:23.547Z,24.80
2022-11-05T01:26:34.310Z,25.00
2022-11-05T01:26:46.063Z,25.10
2022-11-05T01:26:58.802Z,25.40
2022-11-05T01:27:10.831Z,25.10
2022-11-05T01:27:24.551Z,25.30
2022-11-05T01:27:37.838Z,26.00
2022-11-05T01:27:50.100Z,25.50
2022-11-05T01:28:01.897Z,25.00
2022-11-05T01:28:14.421Z,24.70
2022-11-05T01:28:25.221Z,24.60
2022-11-05T01:28:37.843Z,24.30
2022-11-05T01:28:48.682Z,24.70
2022-11-05T01:29:00.717Z,24.10
2022-11-05T01:29:11.595Z,24.10
2022-11-05T01:29:23.360Z,24.10
2022-11-05T01:29:35.831Z,24.70
2022-11-05T01:29:48.304Z,24.80
2022-11-05T01:29:59.101Z,24.80
2022-11-05T01:30:09.898Z,24.60
2022-11-05T01:30:20.681Z,24.50
2022-11-05T01:30:31.467Z,24.10
2022-11-05T01:30:42.254Z,24.40
2022-11-05T01:30:54.430Z,24.40
2022-11-05T01:31:05.252Z,24.40
2022-11-05T01:31:16.971Z,24.60
2022-11-05T01:31:27.801Z,25.50
2022-11-05T01:31:40.270Z,25.50
2022-11-05T01:31:52.721Z,25.20
2022-11-05T01:32:04.681Z,25.10
2022-11-05T01:32:15.478Z,25.90
2022-11-05T01:32:27.956Z,26.00
2022-11-05T01:32:40.313Z,25.90
2022-11-05T01:32:52.064Z,25.10
2022-11-05T01:33:03.803Z,25.20
2022-11-05T01:33:14.931Z,24.90
2022-11-05T01:33:26.733Z,24.60
2022-11-05T01:33:38.543Z,24.80
2022-11-05T01:33:50.302Z,24.80
2022-11-05T01:34:02.074Z,25.10
2022-11-05T01:34:14.029Z,25.10
2022-11-05T01:34:25.792Z,25.50
2022-11-05T01:34:37.610Z,25.20
2022-11-05T01:34:49.315Z,25.20
2022-11-05T01:35:00.133Z,24.90
2022-11-05T01:35:11.821Z,25.20
2022-11-05T01:35:22.571Z,25.00
2022-11-05T01:35:35.052Z,24.70
2022-11-05T01:35:45.842Z,24.60
2022-11-05T01:35:56.632Z,24.00
2022-11-05T01:36:08.381Z,24.20
2022-11-05T01:36:19.199Z,24.30
2022-11-05T01:36:30.032Z,25.20
2022-11-05T01:36:40.994Z,25.00
2022-11-05T01:36:53.421Z,25.50
2022-11-05T01:37:04.229Z,25.60
2022-11-05T01:37:14.994Z,25.60
2022-11-05T01:37:25.822Z,26.10
2022-11-05T01:37:36.619Z,26.80
2022-11-05T01:37:48.591Z,27.10
2022-11-05T01:37:59.444Z,28.00
2022-11-05T01:38:11.194Z,28.00
2022-11-05T01:38:22.172Z,27.80
2022-11-05T01:38:34.435Z,27.10
2022-11-05T01:38:45.191Z,27.30
2022-11-05T01:38:55.966Z,27.50
2022-11-05T01:39:06.767Z,27.20
2022-11-05T01:39:17.537Z,27.20
2022-11-05T01:39:29.251Z,27.20
2022-11-05T01:39:40.002Z,26.40
2022-11-05T01:39:52.496Z,25.60
2022-11-05T01:40:04.232Z,25.90
2022-11-05T01:40:16.692Z,25.90
2022-11-05T01:40:27.475Z,25.70
2022-11-05T01:40:39.267Z,25.60
2022-11-05T01:40:50.057Z,26.20
2022-11-05T01:41:01.792Z,26.70
2022-11-05T01:41:12.583Z,26.70
2022-11-05T01:41:25.318Z,26.00
2022-11-05T01:41:36.123Z,25.90
2022-11-05T01:41:47.871Z,25.80
2022-11-05T01:41:59.832Z,26.40
2022-11-05T01:42:11.848Z,26.80
2022-11-05T01:42:24.283Z,27.30
2022-11-05T01:42:36.512Z,27.40
2022-11-05T01:42:49.005Z,27.30
2022-11-05T01:43:00.746Z,28.00
2022-11-05T01:43:13.339Z,27.90
2022-11-05T01:43:25.894Z,28.20
2022-11-05T01:43:36.712Z,28.30
2022-11-05T01:43:47.471Z,27.50
2022-11-05T01:43:59.991Z,27.50
2022-11-05T01:44:10.793Z,28.30
2022-11-05T01:44:23.283Z,28.60
2022-11-05T01:44:36.425Z,29.20
2022-11-05T01:44:47.164Z,29.70
2022-11-05T01:44:59.601Z,29.70
2022-11-05T01:45:12.427Z,31.00
2022-11-05T01:45:24.670Z,31.80
2022-11-05T01:45:37.643Z,31.80
2022-11-05T01:45:48.486Z,31.40
2022-11-05T01:46:00.221Z,32.50
2022-11-05T01:46:12.325Z,32.00
2022-11-05T01:46:24.073Z,32.80
2022-11-05T01:46:36.568Z,32.80
2022-11-05T01:46:47.342Z,33.10
2022-11-05T01:47:00.307Z,33.10
2022-11-05T01:47:13.928Z,33.00
2022-11-05T01:47:24.713Z,32.10
2022-11-05T01:47:37.233Z,32.00
2022-11-05T01:47:49.682Z,31.50
2022-11-05T01:48:00.486Z,30.90
2022-11-05T01:48:13.803Z,30.80
2022-11-05T01:48:24.593Z,30.90
2022-11-05T01:48:36.331Z,29.70
2022-11-05T01:48:47.093Z,29.10
2022-11-05T01:49:03.261Z,29.40
2022-11-05T01:49:15.405Z,29.50
2022-11-05T01:49:26.203Z,29.60
2022-11-05T01:49:37.194Z,30.80
2022-11-05T01:49:47.955Z,31.20
2022-11-05T01:50:00.194Z,31.30
2022-11-05T01:50:10.964Z,31.00
2022-11-05T01:50:21.735Z,30.70
2022-11-05T01:50:33.485Z,29.50
2022-11-05T01:50:45.343Z,29.60
2022-11-05T01:50:58.133Z,30.00
2022-11-05T01:51:09.864Z,30.10
2022-11-05T01:51:21.625Z,29.90
2022-11-05T01:51:33.844Z,29.90
2022-11-05T01:51:44.614Z,29.80
2022-11-05T01:51:56.385Z,30.00
2022-11-05T01:52:07.177Z,30.10
2022-11-05T01:52:19.915Z,30.30
2022-11-05T01:52:33.662Z,30.40
2022-11-05T01:52:46.163Z,29.80
2022-11-05T01:52:56.935Z,30.00
2022-11-05T01:53:09.049Z,29.40
2022-11-05T01:53:21.809Z,29.80
2022-11-05T01:53:34.296Z,29.70
2022-11-05T01:53:48.094Z,29.30
2022-11-05T01:53:58.915Z,29.40
2022-11-05T01:54:09.724Z,29.90
2022-11-05T01:54:20.529Z,29.00
2022-11-05T01:54:31.348Z,29.60
2022-11-05T01:54:43.335Z,30.20
2022-11-05T01:54:54.104Z,31.60
2022-11-05T01:55:04.875Z,31.60
2022-11-05T01:55:15.756Z,31.90
2022-11-05T01:55:27.522Z,32.00
2022-11-05T01:55:39.571Z,31.90
2022-11-05T01:55:51.475Z,31.20
2022-11-05T01:56:02.287Z,31.50
2022-11-05T01:56:14.525Z,31.50
2022-11-05T01:56:25.296Z,31.50
2022-11-05T01:57:15.490Z,0.00
2022-11-05T01:57:26.260Z,30.50
2022-11-05T01:57:38.745Z,31.50
2022-11-05T01:57:51.182Z,30.60
2022-11-05T01:58:03.660Z,29.90
2022-11-05T01:58:14.441Z,30.30
2022-11-05T01:58:27.921Z,30.10
2022-11-05T01:58:39.892Z,30.80
2022-11-05T01:58:52.342Z,30.60
2022-11-05T01:59:04.064Z,31.00
2022-11-05T01:59:16.411Z,30.50
2022-11-05T01:59:28.141Z,30.30
2022-11-05T01:59:38.941Z,29.80
2022-11-05T01:59:51.602Z,29.70
2022-11-05T02:00:04.110Z,30.10
2022-11-05T02:00:41.811Z,0.00
2022-11-05T02:00:52.581Z,30.00
2022-11-05T02:01:03.332Z,31.30
2022-11-05T02:01:14.093Z,31.80
2022-11-05T02:01:26.891Z,31.30
2022-11-05T02:01:38.891Z,32.00
2022-11-05T02:01:50.906Z,31.90
2022-11-05T02:02:03.960Z,32.30
2022-11-05T02:02:16.154Z,33.00
2022-11-05T02:02:27.011Z,34.10
2022-11-05T02:02:38.859Z,34.60
2022-11-05T02:02:51.646Z,34.20
2022-11-05T02:03:04.331Z,34.30
2022-11-05T02:03:15.131Z,33.90
2022-11-05T02:03:25.912Z,33.70
2022-11-05T02:03:38.362Z,33.20
2022-11-05T02:03:49.270Z,33.20
2022-11-05T02:04:01.755Z,33.90
2022-11-05T02:04:14.194Z,34.50
2022-11-05T02:04:28.105Z,34.20
2022-11-05T02:04:38.852Z,34.40
2022-11-05T02:04:52.089Z,35.60
2022-11-05T02:05:04.562Z,36.50
2022-11-05T02:05:16.813Z,37.10
2022-11-05T02:05:27.564Z,36.80
2022-11-05T02:05:39.771Z,35.70
2022-11-05T02:05:52.022Z,36.10
2022-11-05T02:06:04.494Z,35.70
2022-11-05T02:06:16.960Z,35.40
2022-11-05T02:06:30.655Z,34.90
2022-11-05T02:06:43.853Z,35.00
2022-11-05T02:06:57.602Z,33.70
2022-11-05T02:07:10.438Z,32.10
2022-11-05T02:07:21.183Z,32.50
2022-11-05T02:07:31.972Z,32.30
2022-11-05T02:08:23.405Z,0.00
2022-11-05T02:08:35.596Z,32.30
2022-11-05T02:08:48.122Z,33.50
2022-11-05T02:09:01.315Z,33.80
2022-11-05T02:09:14.257Z,33.40
2022-11-05T02:09:25.995Z,33.10
2022-11-05T02:09:36.808Z,34.20
2022-11-05T02:09:49.776Z,35.00
2022-11-05T02:10:00.544Z,33.90
2022-11-05T02:10:13.266Z,34.20
2022-11-05T02:10:25.475Z,34.80
2022-11-05T02:10:37.739Z,34.70
2022-11-05T02:10:50.194Z,35.10
2022-11-05T02:11:02.476Z,35.40
2022-11-05T02:11:14.208Z,35.10
2022-11-05T02:11:25.947Z,35.30
2022-11-05T02:11:36.715Z,34.90
2022-11-05T02:11:47.455Z,34.80
2022-11-05T02:11:59.696Z,35.70
2022-11-05T02:12:10.477Z,36.30
2022-11-05T02:12:22.729Z,37.10
2022-11-05T02:12:34.955Z,37.60
2022-11-05T02:12:47.414Z,37.50
2022-11-05T02:12:59.143Z,36.90
2022-11-05T02:13:11.865Z,36.00
2022-11-05T02:13:25.011Z,35.40
2022-11-05T02:13:36.738Z,34.60
2022-11-05T02:13:49.204Z,34.30
2022-11-05T02:14:01.916Z,35.10
2022-11-05T02:14:14.190Z,34.50
2022-11-05T02:14:26.676Z,34.40
2022-11-05T02:14:39.626Z,35.10
2022-11-05T02:14:51.345Z,34.80
2022-11-05T02:15:02.196Z,35.10
2022-11-05T02:15:13.977Z,35.50
2022-11-05T02:15:24.747Z,36.50
2022-11-05T02:15:35.571Z,37.50
2022-11-05T02:15:48.017Z,38.50
2022-11-05T02:15:59.777Z,38.90
2022-11-05T02:16:10.577Z,39.40
2022-11-05T02:16:22.316Z,39.60
2022-11-05T02:16:33.087Z,39.00
2022-11-05T02:16:43.896Z,39.90
2022-11-05T02:16:56.338Z,40.20
2022-11-05T02:17:08.879Z,40.40
2022-11-05T02:17:19.718Z,40.00
2022-11-05T02:17:32.179Z,40.10
2022-11-05T02:17:42.945Z,40.00
2022-11-05T02:17:55.409Z,40.20
2022-11-05T02:18:06.190Z,39.50
2022-11-05T02:18:18.707Z,39.70
2022-11-05T02:18:29.507Z,40.40
2022-11-05T02:18:41.484Z,40.70
2022-11-05T02:18:52.307Z,41.50
2022-11-05T02:19:04.086Z,41.50
2022-11-05T02:19:14.887Z,40.70
2022-11-05T02:19:25.698Z,39.80
2022-11-05T02:19:36.472Z,38.50
2022-11-05T02:19:49.668Z,38.80
2022-11-05T02:20:01.810Z,39.00
2022-11-05T02:20:12.567Z,39.60
2022-11-05T02:20:23.356Z,38.60
2022-11-05T02:20:34.110Z,38.00
2022-11-05T02:20:51.870Z,37.70
2022-11-05T02:21:03.219Z,37.90
2022-11-05T02:21:14.919Z,37.00
2022-11-05T02:21:26.668Z,37.70
2022-11-05T02:21:39.116Z,38.70
2022-11-05T02:21:50.827Z,38.90
2022-11-05T02:22:04.567Z,39.20
2022-11-05T02:22:17.048Z,40.10
2022-11-05T02:22:27.795Z,41.20
2022-11-05T02:22:40.208Z,41.70
2022-11-05T02:22:50.976Z,41.30
2022-11-05T02:23:03.948Z,41.50
2022-11-05T02:23:16.221Z,41.00
2022-11-05T02:23:27.969Z,40.10
2022-11-05T02:23:40.498Z,40.30
2022-11-05T02:23:52.184Z,39.60
2022-11-05T02:24:04.926Z,39.30
2022-11-05T02:24:15.738Z,38.90
2022-11-05T02:24:28.208Z,39.90
2022-11-05T02:24:39.008Z,39.90
2022-11-05T02:24:49.800Z,39.70
2022-11-05T02:25:02.260Z,40.00
2022-11-05T02:25:14.990Z,41.20
2022-11-05T02:25:26.740Z,41.90
2022-11-05T02:25:37.578Z,41.30
2022-11-05T02:25:48.380Z,40.50
2022-11-05T02:26:00.883Z,40.60
2022-11-05T02:26:14.119Z,40.10
2022-11-05T02:26:25.600Z,40.00
2022-11-05T02:26:38.029Z,39.70
2022-11-05T02:26:51.029Z,39.90
2022-11-05T02:27:04.229Z,38.50
2022-11-05T02:27:16.730Z,38.70
2022-11-05T02:27:29.678Z,39.60
2022-11-05T02:27:42.331Z,39.20
2022-11-05T02:27:54.804Z,39.20
2022-11-05T02:28:07.348Z,39.10
2022-11-05T02:28:19.830Z,38.80
2022-11-05T02:28:31.549Z,39.60
2022-11-05T02:28:43.278Z,40.40
2022-11-05T02:28:55.069Z,41.20
2022-11-05T02:29:07.281Z,40.80
2022-11-05T02:29:18.969Z,39.60
2022-11-05T02:29:31.203Z,39.50
2022-11-05T02:29:42.898Z,39.90
2022-11-05T02:29:56.616Z,39.60
2022-11-05T02:30:07.394Z,38.40
2022-11-05T02:30:20.371Z,37.90
2022-11-05T02:30:32.108Z,37.50
2022-11-05T02:30:42.880Z,37.10
2022-11-05T02:30:55.610Z,37.40
2022-11-05T02:31:06.439Z,37.00
2022-11-05T02:31:18.448Z,36.20
2022-11-05T02:31:30.197Z,35.10
2022-11-05T02:31:42.641Z,35.50
2022-11-05T02:31:54.437Z,35.40
2022-11-05T02:32:06.898Z,35.80
2022-11-05T02:32:17.669Z,36.00
2022-11-05T02:32:30.871Z,35.80
2022-11-05T02:32:42.610Z,35.90
2022-11-05T02:32:53.412Z,35.90
2022-11-05T02:33:06.123Z,36.40
2022-11-05T02:33:17.858Z,36.00
2022-11-05T02:33:28.597Z,36.40
2022-11-05T02:33:40.830Z,36.60
2022-11-05T02:33:53.560Z,36.60
2022-11-05T02:34:06.041Z,36.70
2022-11-05T02:34:18.312Z,37.40
2022-11-05T02:34:30.771Z,38.00